Time;durP1;ratioP1;P1;durP2;ratioP2;P2;SDS_P1;SDS_P2;PMS_P1;PMS_P2;Temp;Humidity;BMP_temperature;BMP_pressure;BME280_temperature;BME280_humidity;BME280_pressure;Samples;Min_cycle;Max_cycle;Signal;HPM_P1;HPM_P2
2022/03/07 00:03:24;;;;;;;59.53;26.38;;;;;;;-1.29;60.19;99986.31;8399547;28;20051;-72
2022/03/07 00:07:25;;;;;;;57.40;25.27;;;;;;;-1.30;60.34;99982.84;8459843;28;20044;-72
2022/03/07 00:11:28;;;;;;;54.15;24.40;;;;;;;-1.30;60.31;99985.47;8446089;28;20055;-71
2022/03/07 00:15:29;;;;;;;51.03;25.70;;;;;;;-1.27;60.28;99987.69;8451284;28;20074;-73
2022/03/07 00:19:30;;;;;;;56.72;25.48;;;;;;;-1.27;60.49;99977.09;8437622;28;20430;-72
2022/03/07 00:23:31;;;;;;;54.63;25.35;;;;;;;-1.25;60.23;99994.63;8431700;28;20060;-70
2022/03/07 00:27:32;;;;;;;50.60;23.35;;;;;;;-1.27;60.60;99985.06;8457720;28;20415;-71
2022/03/07 00:31:33;;;;;;;53.33;24.42;;;;;;;-1.27;60.75;99978.16;8440046;28;20047;-72
2022/03/07 00:35:34;;;;;;;52.65;23.50;;;;;;;-1.29;60.61;99976.53;8457185;28;20055;-72
2022/03/07 00:39:34;;;;;;;59.28;24.77;;;;;;;-1.34;60.84;99976.34;8431897;28;20048;-72
2022/03/07 00:43:36;;;;;;;52.97;23.92;;;;;;;-1.33;61.17;99972.66;8431709;28;20052;-72
2022/03/07 00:47:37;;;;;;;56.72;23.27;;;;;;;-1.31;61.08;99969.78;8448290;28;20047;-72
2022/03/07 00:51:38;;;;;;;56.47;23.80;;;;;;;-1.30;60.91;99966.94;8432733;28;20450;-72
2022/03/07 00:55:39;;;;;;;57.55;25.63;;;;;;;-1.30;61.29;99971.41;8439711;28;20056;-73
2022/03/07 00:59:40;;;;;;;57.28;24.17;;;;;;;-1.32;61.54;99963.66;8442040;28;20058;-72
2022/03/07 01:03:41;;;;;;;56.90;24.70;;;;;;;-1.32;61.49;99968.97;8464203;28;20507;-71
2022/03/07 01:07:43;;;;;;;53.28;23.73;;;;;;;-1.34;61.60;99971.03;8437336;28;20044;-72
2022/03/07 01:11:44;;;;;;;50.13;23.17;;;;;;;-1.35;62.20;99963.28;8428768;28;20419;-72
2022/03/07 01:15:45;;;;;;;56.70;23.63;;;;;;;-1.33;61.78;99956.78;8490117;27;20144;-72
2022/03/07 01:19:46;;;;;;;67.85;24.38;;;;;;;-1.31;62.04;99944.09;8447515;27;20079;-72
2022/03/07 01:23:47;;;;;;;55.00;23.05;;;;;;;-1.31;62.05;99944.09;8433132;28;20060;-72
2022/03/07 01:27:48;;;;;;;55.38;25.13;;;;;;;-1.33;61.94;99938.22;8451097;28;20044;-72
2022/03/07 01:31:49;;;;;;;62.55;24.15;;;;;;;-1.33;62.60;99919.69;8463474;28;20035;-72
2022/03/07 01:35:50;;;;;;;57.58;23.77;;;;;;;-1.39;62.36;99915.22;8462964;28;20047;-72
2022/03/07 01:39:51;;;;;;;58.05;24.05;;;;;;;-1.41;62.67;99919.91;8463688;28;20040;-72
2022/03/07 01:43:52;;;;;;;54.47;22.85;;;;;;;-1.41;63.11;99917.25;8420845;28;20087;-72
2022/03/07 01:47:53;;;;;;;59.15;24.50;;;;;;;-1.44;62.94;99912.38;8430351;28;20044;-72
2022/03/07 01:51:54;;;;;;;54.38;24.27;;;;;;;-1.41;63.21;99925.19;8449862;28;20080;-72
2022/03/07 01:55:56;;;;;;;61.28;24.80;;;;;;;-1.42;63.00;99915.63;8435258;28;20419;-72
2022/03/07 01:59:57;;;;;;;52.75;23.77;;;;;;;-1.41;63.48;99917.25;8412090;28;20090;-72
2022/03/07 02:03:58;;;;;;;51.88;23.13;;;;;;;-1.42;63.64;99912.97;8430377;28;20044;-72
2022/03/07 02:07:59;;;;;;;55.63;24.42;;;;;;;-1.43;63.65;99911.34;8429039;28;20074;-72
2022/03/07 02:12:00;;;;;;;55.70;23.10;;;;;;;-1.46;64.24;99897.72;8474735;27;20059;-72
2022/03/07 02:16:01;;;;;;;50.88;22.80;;;;;;;-1.54;64.16;99901.44;8460655;28;20054;-72
2022/03/07 02:20:04;;;;;;;61.08;24.05;;;;;;;-1.52;64.19;99919.75;8469599;27;20047;-72
2022/03/07 02:24:05;;;;;;;50.90;22.88;;;;;;;-1.51;64.42;99911.59;8491052;27;20051;-71
2022/03/07 02:28:06;;;;;;;51.70;22.98;;;;;;;-1.56;64.85;99914.06;8458164;28;20047;-71
2022/03/07 02:32:08;;;;;;;49.10;21.65;;;;;;;-1.53;64.56;99907.50;8442940;28;20404;-72
2022/03/07 02:36:09;;;;;;;51.05;22.63;;;;;;;-1.52;64.75;99909.97;8440787;28;20043;-72
2022/03/07 02:40:12;;;;;;;56.63;24.25;;;;;;;-1.52;65.20;99904.66;8476606;27;20138;-72
2022/03/07 02:44:14;;;;;;;53.90;23.83;;;;;;;-1.50;65.22;99901.81;8446265;28;20047;-72
2022/03/07 02:48:15;;;;;;;50.35;22.90;;;;;;;-1.51;65.44;99910.78;8448718;28;20062;-71
2022/03/07 02:52:16;;;;;;;50.10;21.98;;;;;;;-1.51;65.50;99906.28;8455563;28;20462;-72
2022/03/07 02:56:17;;;;;;;46.05;22.13;;;;;;;-1.49;65.48;99904.25;8428917;28;20040;-71
2022/03/07 03:00:18;;;;;;;49.40;22.83;;;;;;;-1.55;65.73;99894.50;8448221;28;20146;-72
2022/03/07 03:04:19;;;;;;;49.60;22.73;;;;;;;-1.52;65.48;99894.06;8451652;28;20487;-72
2022/03/07 03:08:23;;;;;;;55.60;22.80;;;;;;;-1.52;65.92;99891.41;8449779;28;20035;-71
2022/03/07 03:12:24;;;;;;;52.42;22.83;;;;;;;-1.52;65.97;99899.38;8441294;28;20052;-71
2022/03/07 03:16:25;;;;;;;53.67;22.02;;;;;;;-1.49;66.26;99893.66;8459148;28;20052;-72
2022/03/07 03:20:26;;;;;;;50.42;20.90;;;;;;;-1.51;66.63;99894.88;8453859;28;20070;-72
2022/03/07 03:24:27;;;;;;;47.10;22.42;;;;;;;-1.54;66.55;99885.53;8424976;28;20044;-72
2022/03/07 03:28:28;;;;;;;52.03;21.85;;;;;;;-1.51;66.65;99877.16;8474992;27;20047;-72
2022/03/07 03:32:30;;;;;;;45.67;21.40;;;;;;;-1.54;67.08;99880.25;8435408;28;20052;-72
2022/03/07 03:36:31;;;;;;;48.80;20.38;;;;;;;-1.54;67.27;99874.94;8437477;28;20050;-72
2022/03/07 03:40:32;;;;;;;45.50;20.80;;;;;;;-1.55;67.08;99878.63;8427162;28;20418;-72
2022/03/07 03:44:33;;;;;;;54.65;21.08;;;;;;;-1.57;67.45;99875.34;8457928;28;20048;-72
2022/03/07 03:48:34;;;;;;;49.20;20.58;;;;;;;-1.54;67.62;99867.00;8431404;28;20051;-72
2022/03/07 03:52:35;;;;;;;44.80;20.42;;;;;;;-1.57;68.11;99864.75;8438986;28;20119;-73
2022/03/07 03:56:37;;;;;;;53.30;21.17;;;;;;;-1.58;68.15;99868.41;8458337;28;20058;-72
2022/03/07 04:00:38;;;;;;;46.83;18.98;;;;;;;-1.61;68.45;99868.03;8438861;28;20044;-72
2022/03/07 04:04:39;;;;;;;51.50;21.05;;;;;;;-1.64;69.16;99874.59;8435661;28;20100;-72
2022/03/07 04:08:40;;;;;;;48.75;19.73;;;;;;;-1.64;69.21;99877.25;8456864;27;20407;-72
2022/03/07 04:12:42;;;;;;;44.60;19.27;;;;;;;-1.61;68.80;99874.16;8442711;28;20048;-72
2022/03/07 04:16:43;;;;;;;48.47;18.90;;;;;;;-1.59;68.86;99877.41;8465132;27;20056;-72
2022/03/07 04:20:44;;;;;;;43.22;19.23;;;;;;;-1.57;69.63;99880.66;8432589;28;20450;-71
2022/03/07 04:24:45;;;;;;;50.40;20.27;;;;;;;-1.58;69.68;99873.72;8432281;28;20067;-71
2022/03/07 04:28:46;;;;;;;49.30;20.00;;;;;;;-1.64;70.37;99874.59;8464662;27;20071;-71
2022/03/07 04:32:47;;;;;;;44.90;19.73;;;;;;;-1.70;70.27;99880.72;8433864;28;20121;-71
2022/03/07 04:36:48;;;;;;;52.80;20.17;;;;;;;-1.73;70.57;99875.81;8422016;28;20040;-71
2022/03/07 04:40:49;;;;;;;44.47;18.60;;;;;;;-1.70;70.64;99886.03;8437049;27;20048;-71
2022/03/07 04:44:50;;;;;;;46.78;19.23;;;;;;;-1.63;70.45;99886.78;8439296;27;20043;-71
2022/03/07 04:48:51;;;;;;;46.50;19.25;;;;;;;-1.60;70.90;99886.38;8432831;28;20135;-72
2022/03/07 04:52:52;;;;;;;49.53;19.17;;;;;;;-1.59;71.23;99901.25;8433218;28;20047;-71
2022/03/07 04:56:54;;;;;;;45.15;18.50;;;;;;;-1.53;70.83;99903.03;8448386;28;20051;-71
2022/03/07 05:00:55;;;;;;;47.97;17.88;;;;;;;-1.50;71.31;99902.63;8432727;27;20483;-71
2022/03/07 05:04:56;;;;;;;39.03;16.85;;;;;;;-1.44;71.38;99907.09;8431122;28;20055;-72
2022/03/07 05:08:57;;;;;;;39.50;17.27;;;;;;;-1.42;71.44;99894.44;8428976;28;20047;-72
2022/03/07 05:12:58;;;;;;;43.67;16.52;;;;;;;-1.45;71.50;99894.84;8430960;28;20555;-71
2022/03/07 05:16:59;;;;;;;42.83;16.30;;;;;;;-1.52;71.72;99887.97;8432416;27;20055;-71
2022/03/07 05:21:00;;;;;;;42.15;16.70;;;;;;;-1.57;72.07;99901.84;8453722;28;20466;-72
2022/03/07 05:25:01;;;;;;;42.05;16.77;;;;;;;-1.61;72.20;99895.34;8442354;28;20040;-71
2022/03/07 05:29:03;;;;;;;39.60;16.33;;;;;;;-1.65;72.58;99915.34;8411603;28;20416;-71
2022/03/07 05:33:04;;;;;;;39.60;15.85;;;;;;;-1.66;72.82;99913.69;8430638;28;20048;-71
2022/03/07 05:37:05;;;;;;;43.65;16.08;;;;;;;-1.74;73.59;99908.63;8430488;28;20059;-72
2022/03/07 05:41:06;;;;;;;40.58;16.45;;;;;;;-1.82;74.00;99919.47;8430290;28;20518;-71
2022/03/07 05:45:09;;;;;;;38.95;16.75;;;;;;;-1.83;74.28;99920.47;8427906;28;20076;-71
2022/03/07 05:49:10;;;;;;;44.72;16.95;;;;;;;-1.77;73.70;99922.28;8430247;28;20058;-71
2022/03/07 05:53:11;;;;;;;40.55;16.77;;;;;;;-1.77;73.53;99927.59;8429827;28;20048;-71
2022/03/07 05:57:12;;;;;;;43.45;15.32;;;;;;;-1.77;74.85;99922.28;8440474;28;20397;-71
2022/03/07 06:01:14;;;;;;;44.05;16.42;;;;;;;-1.67;74.89;99932.44;8461023;28;20483;-72
2022/03/07 06:05:15;;;;;;;35.10;15.07;;;;;;;-1.62;74.38;99936.09;8461993;28;20044;-72
2022/03/07 06:09:17;;;;;;;36.17;14.75;;;;;;;-1.64;74.31;99946.09;8463242;28;20059;-71
2022/03/07 06:13:19;;;;;;;38.42;15.60;;;;;;;-1.62;75.12;99941.38;8462851;28;20059;-72
2022/03/07 06:17:21;;;;;;;39.90;15.00;;;;;;;-1.59;75.69;99925.09;8462691;28;20071;-72
2022/03/07 06:21:22;;;;;;;37.95;14.82;;;;;;;-1.56;75.17;99929.13;8462382;28;20077;-72
2022/03/07 06:25:23;;;;;;;36.47;14.07;;;;;;;-1.49;75.61;99925.47;8462484;28;20043;-71
2022/03/07 06:29:24;;;;;;;33.92;13.68;;;;;;;-1.37;76.37;99926.41;8463138;28;20507;-72
2022/03/07 06:33:25;;;;;;;34.88;13.30;;;;;;;-1.15;76.38;99931.38;8462893;28;20071;-71
2022/03/07 06:37:26;;;;;;;37.17;13.88;;;;;;;-0.90;76.34;99924.31;8462028;28;20044;-71
2022/03/07 06:41:27;;;;;;;38.78;14.25;;;;;;;-0.71;76.36;99923.34;8442916;28;20052;-71
2022/03/07 06:45:30;;;;;;;33.35;13.02;;;;;;;-0.54;76.47;99929.75;8462325;28;20048;-71
2022/03/07 06:49:30;;;;;;;33.17;12.88;;;;;;;-0.50;76.07;99930.94;8462509;28;20047;-71
2022/03/07 06:53:31;;;;;;;31.73;12.05;;;;;;;-0.36;77.17;99936.13;8461816;28;20052;-71
2022/03/07 06:57:32;;;;;;;32.33;11.80;;;;;;;-0.35;76.42;99937.75;8461826;28;20044;-71
2022/03/07 07:01:33;;;;;;;34.25;12.98;;;;;;;-0.31;76.66;99928.31;8461648;28;20051;-72
2022/03/07 07:05:34;;;;;;;31.27;11.77;;;;;;;-0.19;76.43;99921.28;8461476;28;20063;-71
2022/03/07 07:09:36;;;;;;;26.25;11.80;;;;;;;-0.21;76.88;99928.66;8461371;28;20055;-71
2022/03/07 07:13:36;;;;;;;29.48;12.23;;;;;;;-0.27;76.54;99924.22;8461611;28;20544;-71
2022/03/07 07:17:37;;;;;;;29.63;12.27;;;;;;;-0.32;77.23;99921.41;8461182;28;20055;-72
2022/03/07 07:21:40;;;;;;;34.17;12.75;;;;;;;-0.44;77.78;99924.78;8475899;27;20136;-72
2022/03/07 07:25:41;;;;;;;36.28;12.27;;;;;;;-0.42;78.19;99928.00;8461160;28;20055;-71
2022/03/07 07:29:42;;;;;;;28.27;12.02;;;;;;;-0.43;78.38;99929.06;8460789;28;20063;-72
2022/03/07 07:33:44;;;;;;;32.45;12.48;;;;;;;-0.38;78.93;99922.28;8459570;28;20135;-72
2022/03/07 07:37:44;;;;;;;32.58;13.13;;;;;;;-0.35;78.87;99921.84;8460645;28;20058;-71
2022/03/07 07:41:45;;;;;;;32.63;13.02;;;;;;;-0.34;78.84;99928.78;8461046;28;20040;-71
2022/03/07 07:45:46;;;;;;;30.08;12.27;;;;;;;-0.22;78.64;99921.72;8500306;27;20078;-71
2022/03/07 07:49:47;;;;;;;36.35;12.60;;;;;;;-0.10;78.41;99919.94;8467769;28;20040;-72
2022/03/07 07:53:48;;;;;;;31.38;12.82;;;;;;;0.00;78.08;99930.91;8482781;27;20371;-72
2022/03/07 07:57:49;;;;;;;30.73;12.48;;;;;;;0.07;78.12;99926.31;8448456;28;20092;-71
2022/03/07 08:01:50;;;;;;;34.30;12.95;;;;;;;0.22;77.67;99918.78;8467300;28;20097;-71
2022/03/07 08:05:51;;;;;;;28.35;12.38;;;;;;;0.32;77.71;99924.41;8448158;28;20079;-71
2022/03/07 08:09:52;;;;;;;30.25;12.63;;;;;;;0.49;77.13;99923.81;8466929;28;20051;-71
2022/03/07 08:13:53;;;;;;;30.20;12.32;;;;;;;0.72;76.11;99918.59;8467418;28;20512;-72
2022/03/07 08:17:54;;;;;;;31.50;11.70;;;;;;;0.70;76.14;99915.34;8466656;28;20056;-72
2022/03/07 08:21:55;;;;;;;30.20;12.07;;;;;;;1.13;75.37;99921.28;8466514;28;20059;-71
2022/03/07 08:25:56;;;;;;;23.35;11.20;;;;;;;1.48;74.10;99917.91;8481642;27;20128;-71
2022/03/07 08:29:58;;;;;;;27.48;11.20;;;;;;;1.71;73.02;99923.22;8466447;28;20436;-72
2022/03/07 08:33:58;;;;;;;24.98;11.13;;;;;;;1.72;73.05;99914.22;8466305;28;20134;-72
2022/03/07 08:38:00;;;;;;;21.27;11.07;;;;;;;1.89;72.50;99920.47;8465906;28;20048;-73
2022/03/07 08:42:00;;;;;;;24.52;12.50;;;;;;;1.98;71.96;99903.09;8466133;28;20050;-72
2022/03/07 08:46:02;;;;;;;30.63;13.02;;;;;;;1.97;72.25;99895.31;8466104;28;20877;-72
2022/03/07 08:50:04;;;;;;;31.77;13.60;;;;;;;2.19;72.23;99893.66;8480507;27;20128;-72
2022/03/07 08:54:06;;;;;;;30.23;14.27;;;;;;;2.04;72.30;99896.81;8479948;27;20046;-72
2022/03/07 08:58:07;;;;;;;33.03;14.63;;;;;;;2.00;72.74;99890.34;8463505;28;20491;-73
2022/03/07 09:02:11;;;;;;;30.83;15.73;;;;;;;2.08;73.06;99887.31;8465309;27;20048;-72
2022/03/07 09:06:12;;;;;;;38.88;16.05;;;;;;;2.15;72.96;99886.38;8429254;28;20043;-71
2022/03/07 09:10:13;;;;;;;35.25;15.15;;;;;;;2.23;73.25;99880.69;8465289;28;20048;-71
2022/03/07 09:14:14;;;;;;;29.17;14.80;;;;;;;2.37;72.52;99879.38;8464977;28;20056;-71
2022/03/07 09:18:15;;;;;;;30.08;13.48;;;;;;;2.43;72.12;99889.09;8445592;28;20181;-71
2022/03/07 09:22:16;;;;;;;27.08;12.27;;;;;;;2.66;70.85;99883.69;8464616;28;20051;-72
2022/03/07 09:26:18;;;;;;;29.02;13.38;;;;;;;2.48;70.79;99881.22;8464501;27;20052;-71
2022/03/07 09:30:19;;;;;;;25.27;12.73;;;;;;;2.53;70.89;99874.13;8463468;28;20043;-72
2022/03/07 09:34:20;;;;;;;31.60;14.07;;;;;;;2.58;70.63;99865.41;8464414;28;20054;-72
2022/03/07 09:38:21;;;;;;;25.52;11.75;;;;;;;2.65;70.35;99854.56;8463983;28;20155;-71
2022/03/07 09:42:22;;;;;;;21.88;10.45;;;;;;;2.79;69.44;99862.06;8464154;28;20436;-72
2022/03/07 09:46:23;;;;;;;21.00;9.80;;;;;;;2.83;67.61;99857.88;8444973;28;20043;-71
2022/03/07 09:50:24;;;;;;;27.02;12.63;;;;;;;2.94;67.62;99865.00;8463766;28;20058;-72
2022/03/07 09:54:25;;;;;;;25.10;11.55;;;;;;;2.97;67.11;99859.16;8463765;27;20049;-71
2022/03/07 09:58:26;;;;;;;23.20;11.30;;;;;;;3.18;66.65;99865.66;8463348;28;20071;-72
2022/03/07 10:02:28;;;;;;;23.75;10.88;;;;;;;3.17;66.29;99857.91;8463403;28;20510;-72
2022/03/07 10:06:31;;;;;;;19.88;11.32;;;;;;;3.44;66.54;99864.19;8462349;28;20047;-71
2022/03/07 10:10:34;;;;;;;27.52;10.93;;;;;;;3.75;66.01;99860.94;8462917;28;20040;-72
2022/03/07 10:14:46;;;;;;;19.92;9.48;;;;;;;3.79;65.04;99862.06;8462942;28;20048;-72
2022/03/07 10:18:54;;;;;;;20.33;10.23;;;;;;;3.70;64.85;99868.88;8424654;28;20044;-71
2022/03/07 10:22:58;;;;;;;20.73;10.32;;;;;;;3.74;64.37;99875.38;8424719;28;20056;-72
2022/03/07 10:27:00;;;;;;;25.55;12.50;;;;;;;3.98;64.65;99869.78;8424730;28;20056;-72
2022/03/07 10:31:11;;;;;;;24.88;12.13;;;;;;;4.39;63.57;99861.22;8407639;28;20052;-72
2022/03/07 10:35:29;;;;;;;24.80;10.73;;;;;;;4.80;62.27;99872.38;8423254;28;20543;-72
2022/03/07 10:39:30;;;;;;;25.95;12.23;;;;;;;4.75;62.65;99875.00;8423583;28;20713;-72
2022/03/07 10:43:31;;;;;;;179.85;51.80;;;;;;;4.47;63.08;99876.84;8424196;28;20123;-71
2022/03/07 10:47:32;;;;;;;25.70;13.48;;;;;;;4.33;63.34;99875.63;8429436;28;20058;-72
2022/03/07 10:51:33;;;;;;;23.35;12.68;;;;;;;4.13;64.44;99862.78;8442460;28;20055;-71
2022/03/07 10:55:35;;;;;;;29.63;14.20;;;;;;;4.56;63.82;99853.94;8461082;28;20044;-72
2022/03/07 10:59:38;;;;;;;29.52;13.75;;;;;;;4.68;63.14;99848.44;8461451;28;20426;-72
2022/03/07 11:03:39;;;;;;;29.73;14.43;;;;;;;4.47;63.49;99846.63;8461392;28;20040;-72
2022/03/07 11:07:45;;;;;;;27.13;13.05;;;;;;;4.88;63.31;99831.78;8461496;28;20070;-72
2022/03/07 11:11:47;;;;;;;23.63;12.75;;;;;;;5.12;61.00;99843.78;8461604;28;20452;-72
2022/03/07 11:15:48;;;;;;;25.20;13.63;;;;;;;5.00;60.37;99840.47;8460001;28;20101;-72
2022/03/07 11:19:56;;;;;;;28.05;14.25;;;;;;;4.98;60.73;99832.69;8494001;27;20457;-72
2022/03/07 11:23:57;;;;;;;24.08;12.50;;;;;;;4.67;61.61;99831.59;8460643;28;20059;-72
2022/03/07 11:27:58;;;;;;;24.48;12.20;;;;;;;5.05;59.43;99832.47;8461034;28;20050;-72
2022/03/07 11:32:02;;;;;;;24.30;12.38;;;;;;;5.01;58.10;99826.03;8494106;27;20048;-72
2022/03/07 11:36:05;;;;;;;22.70;12.43;;;;;;;4.94;58.46;99820.88;8460582;28;20138;-72
2022/03/07 11:40:23;;;;;;;27.80;12.93;;;;;;;4.84;58.27;99819.97;8460429;28;20086;-71
2022/03/07 11:44:24;;;;;;;24.52;10.75;;;;;;;5.16;56.57;99820.78;8460612;28;20090;-72
2022/03/07 11:48:29;;;;;;;23.95;11.00;;;;;;;5.44;55.84;99815.13;8460554;28;20055;-71
2022/03/07 11:52:30;;;;;;;27.55;12.32;;;;;;;5.45;54.55;99816.72;8460392;28;20051;-72
2022/03/07 11:56:40;;;;;;;21.25;10.50;;;;;;;5.41;54.35;99810.25;8460459;28;20052;-72
2022/03/07 12:00:44;;;;;;;25.88;11.85;;;;;;;5.62;52.13;99815.75;8474974;28;20081;-72
2022/03/07 12:04:45;;;;;;;29.88;12.00;;;;;;;5.48;51.75;99810.84;8459355;28;20130;-72
2022/03/07 12:08:52;;;;;;;33.47;14.23;;;;;;;5.46;51.86;99802.25;8460577;28;20069;-72
2022/03/07 12:13:07;;;;;;;45.47;18.98;;;;;;;5.74;51.73;99816.34;8460717;28;20044;-72
2022/03/07 12:17:10;;;;;;;52.13;21.50;;;;;;;5.49;52.45;99812.47;8460514;28;20420;-72
2022/03/07 12:21:11;;;;;;;60.67;26.08;;;;;;;5.46;53.50;99802.25;8459900;28;20093;-71
2022/03/07 12:25:12;;;;;;;61.08;24.20;;;;;;;5.48;52.12;99799.31;8459917;28;20048;-72
2022/03/07 12:29:14;;;;;;;60.13;25.58;;;;;;;5.77;51.82;99807.78;8442604;28;20067;-72
2022/03/07 12:33:15;;;;;;;49.90;19.95;;;;;;;5.81;50.74;99808.91;8466357;28;20040;-72
2022/03/07 12:37:20;;;;;;;74.80;29.65;;;;;;;5.72;51.55;99805.09;8448635;27;20068;-72
2022/03/07 12:41:29;;;;;;;60.35;25.48;;;;;;;5.41;52.48;99794.19;8447102;28;20044;-71
2022/03/07 12:45:30;;;;;;;73.78;29.40;;;;;;;5.86;52.29;99795.53;8432181;28;20048;-71
2022/03/07 12:49:32;;;;;;;69.72;26.90;;;;;;;6.01;50.26;99798.31;8432089;28;20048;-72
2022/03/07 12:53:35;;;;;;;68.18;26.52;;;;;;;5.39;52.24;99790.16;8431901;28;20552;-72
2022/03/07 12:57:36;;;;;;;57.67;22.80;;;;;;;5.90;51.92;99783.25;8431749;28;20405;-71
2022/03/07 13:01:48;;;;;;;71.40;28.95;;;;;;;6.18;50.92;99761.38;8431553;28;20059;-71
2022/03/07 13:06:02;;;;;;;49.33;21.67;;;;;;;6.23;50.81;99779.34;8412399;28;20377;-72
2022/03/07 13:10:11;;;;;;;53.42;22.25;;;;;;;6.70;50.46;99768.44;8431349;28;20044;-71
2022/03/07 13:14:21;;;;;;;65.32;23.75;;;;;;;6.70;49.10;99779.19;8431337;28;20044;-72
2022/03/07 13:18:22;;;;;;;52.88;22.50;;;;;;;6.22;49.36;99789.25;8431241;28;20093;-71
2022/03/07 13:22:24;;;;;;;53.90;21.83;;;;;;;6.05;50.64;99802.06;8430931;28;20056;-72
2022/03/07 13:26:27;;;;;;;45.83;19.23;;;;;;;6.86;47.22;99772.75;8430986;28;20055;-72
2022/03/07 13:30:28;;;;;;;40.50;16.58;;;;;;;7.74;45.99;99778.53;8445118;28;20052;-73
2022/03/07 13:34:40;;;;;;;48.75;20.25;;;;;;;7.03;46.75;99783.22;8439036;28;20450;-72
2022/03/07 13:38:41;;;;;;;51.85;20.85;;;;;;;6.65;47.92;99792.59;8464152;28;20047;-73
2022/03/07 13:42:44;;;;;;;48.47;19.50;;;;;;;6.77;48.51;99791.25;8463956;27;20090;-72
2022/03/07 13:47:00;;;;;;;47.88;20.23;;;;;;;7.87;47.12;99783.34;8464022;27;20058;-71
2022/03/07 13:51:01;;;;;;;53.75;23.75;;;;;;;7.50;45.93;99793.66;8444840;28;20100;-72
2022/03/07 13:55:05;;;;;;;45.53;17.05;;;;;;;8.18;47.13;99783.22;8463671;28;20427;-72
2022/03/07 13:59:14;;;;;;;31.58;13.93;;;;;;;10.23;42.78;99783.63;8427418;28;20044;-71
2022/03/07 14:03:19;;;;;;;43.28;18.83;;;;;;;9.74;41.17;99783.91;8462024;28;20407;-71
2022/03/07 14:07:29;;;;;;;46.10;20.13;;;;;;;8.58;44.02;99793.78;8463301;28;20177;-72
2022/03/07 14:11:30;;;;;;;34.22;15.65;;;;;;;8.07;44.65;99796.72;8477823;27;20043;-72
2022/03/07 14:15:37;;;;;;;35.85;15.57;;;;;;;7.18;46.00;99802.84;8444229;28;20054;-72
2022/03/07 14:19:38;;;;;;;33.35;14.95;;;;;;;6.44;47.60;99797.13;8443920;28;20126;-72
2022/03/07 14:23:39;;;;;;;31.58;13.63;;;;;;;6.35;47.84;99798.69;8462427;28;20051;-72
2022/03/07 14:27:40;;;;;;;26.30;12.05;;;;;;;6.65;47.48;99803.31;8462839;28;20108;-72
2022/03/07 14:31:41;;;;;;;25.88;10.00;;;;;;;6.50;47.35;99805.97;8462506;28;20505;-72
2022/03/07 14:35:43;;;;;;;21.38;9.55;;;;;;;6.09;48.04;99816.56;8462237;28;20458;-71
2022/03/07 14:39:44;;;;;;;24.75;9.80;;;;;;;5.95;48.52;99810.06;8426066;28;20047;-71
2022/03/07 14:43:46;;;;;;;18.48;8.77;;;;;;;5.85;48.87;99804.63;8462048;28;20044;-72
2022/03/07 14:47:49;;;;;;;20.95;9.07;;;;;;;7.52;46.60;99802.25;8477008;27;20049;-72
2022/03/07 14:51:50;;;;;;;19.88;9.00;;;;;;;7.70;45.16;99799.00;8461359;28;20109;-71
2022/03/07 14:55:51;;;;;;;21.00;9.38;;;;;;;7.06;46.26;99804.16;8442595;28;20126;-72
2022/03/07 14:59:52;;;;;;;21.08;8.93;;;;;;;6.73;46.36;99797.41;8457921;28;20047;-72
2022/03/07 15:03:53;;;;;;;22.58;9.77;;;;;;;6.42;47.18;99799.25;8457462;28;20047;-72
2022/03/07 15:07:55;;;;;;;20.70;9.70;;;;;;;7.19;47.00;99792.91;8457550;28;20140;-72
2022/03/07 15:11:56;;;;;;;24.98;10.88;;;;;;;8.69;43.75;99789.16;8439661;28;20051;-72
2022/03/07 15:15:57;;;;;;;20.85;9.70;;;;;;;8.35;43.99;99794.47;8437485;28;20044;-72
2022/03/07 15:19:59;;;;;;;27.75;11.80;;;;;;;7.68;45.19;99795.75;8405890;28;20526;-72
2022/03/07 15:24:01;;;;;;;28.17;11.65;;;;;;;7.17;46.69;99795.84;8423166;28;20095;-72
2022/03/07 15:28:02;;;;;;;25.63;10.98;;;;;;;7.95;45.95;99796.22;8424083;28;20043;-71
2022/03/07 15:32:05;;;;;;;29.13;11.65;;;;;;;7.70;46.22;99788.25;8461224;28;20078;-72
2022/03/07 15:36:06;;;;;;;22.85;10.07;;;;;;;7.27;46.41;99788.84;8460812;28;20503;-72
2022/03/07 15:40:07;;;;;;;20.10;9.63;;;;;;;6.73;47.21;99800.09;8460825;28;20039;-71
2022/03/07 15:44:10;;;;;;;20.33;8.75;;;;;;;6.48;47.45;99792.00;8458837;28;20039;-72
2022/03/07 15:48:11;;;;;;;18.73;9.27;;;;;;;6.09;48.21;99800.47;8432296;28;20048;-72
2022/03/07 15:52:13;;;;;;;19.35;8.35;;;;;;;5.83;48.64;99801.38;8458288;28;20506;-71
2022/03/07 15:56:15;;;;;;;17.27;8.20;;;;;;;5.76;49.01;99816.91;8457901;28;20051;-72
2022/03/07 16:00:16;;;;;;;18.70;8.48;;;;;;;5.58;49.47;99809.28;8405709;28;20159;-72
2022/03/07 16:04:18;;;;;;;18.25;7.78;;;;;;;5.41;49.74;99815.63;8429394;27;20039;-72
2022/03/07 16:08:20;;;;;;;15.82;7.50;;;;;;;5.20;49.91;99813.84;8462123;27;20076;-72
2022/03/07 16:12:22;;;;;;;18.90;8.38;;;;;;;5.05;50.27;99821.75;8463740;27;20394;-71
2022/03/07 16:16:23;;;;;;;15.70;7.32;;;;;;;4.89;50.85;99817.34;8497278;27;20047;-71
2022/03/07 16:20:25;;;;;;;18.15;9.35;;;;;;;4.81;51.59;99815.91;8441828;27;20047;-71
2022/03/07 16:24:27;;;;;;;17.83;8.40;;;;;;;4.74;52.24;99814.53;8497137;27;20054;-71
2022/03/07 16:28:29;;;;;;;16.15;7.03;;;;;;;4.58;52.76;99819.72;8467386;28;20054;-71
2022/03/07 16:32:30;;;;;;;21.02;7.78;;;;;;;4.37;53.72;99815.22;8475493;27;20080;-71
2022/03/07 16:36:32;;;;;;;21.35;8.60;;;;;;;4.20;54.48;99825.19;8435801;28;20040;-71
2022/03/07 16:40:33;;;;;;;18.50;8.45;;;;;;;4.04;55.30;99826.03;8466682;28;20039;-72
2022/03/07 16:44:34;;;;;;;18.60;8.60;;;;;;;3.87;55.94;99830.63;8466775;28;20124;-72
2022/03/07 16:48:35;;;;;;;20.35;8.07;;;;;;;3.77;56.19;99837.47;8464134;28;20040;-72
2022/03/07 16:52:38;;;;;;;20.30;8.57;;;;;;;3.71;56.87;99854.47;8464584;28;20066;-72
2022/03/07 16:56:39;;;;;;;29.25;12.60;;;;;;;3.72;57.06;99853.41;8492554;27;20369;-71
2022/03/07 17:00:43;;;;;;;29.25;10.20;;;;;;;3.67;57.26;99845.34;8463053;28;20054;-73
2022/03/07 17:04:44;;;;;;;32.03;14.20;;;;;;;3.62;57.39;99850.59;8465695;28;20169;-72
2022/03/07 17:08:45;;;;;;;26.67;9.73;;;;;;;3.51;58.22;99854.16;8444720;28;20048;-71
2022/03/07 17:12:46;;;;;;;21.20;9.25;;;;;;;3.44;58.30;99869.53;8430905;28;20052;-73
2022/03/07 17:16:48;;;;;;;25.17;10.48;;;;;;;3.42;58.54;99874.34;8445329;28;20062;-71
2022/03/07 17:20:49;;;;;;;28.10;9.68;;;;;;;3.38;58.78;99875.88;8477630;27;20431;-72
2022/03/07 17:24:50;;;;;;;25.40;9.45;;;;;;;3.26;59.00;99883.16;8463295;28;20134;-71
2022/03/07 17:28:52;;;;;;;20.05;8.90;;;;;;;3.07;59.46;99884.44;8456850;27;20492;-71
2022/03/07 17:32:53;;;;;;;28.23;9.82;;;;;;;2.91;60.24;99892.13;8428049;28;20048;-71
2022/03/07 17:36:54;;;;;;;23.13;9.77;;;;;;;2.79;60.90;99888.75;8464603;28;20043;-71
2022/03/07 17:40:55;;;;;;;25.25;10.60;;;;;;;2.67;61.14;99890.63;8463623;27;20126;-71
2022/03/07 17:45:01;;;;;;;27.27;11.23;;;;;;;2.61;61.86;99891.59;8467651;27;20461;-71
2022/03/07 17:49:03;;;;;;;23.08;10.00;;;;;;;2.56;62.17;99904.81;8464901;27;20044;-71
2022/03/07 17:53:07;;;;;;;28.77;10.63;;;;;;;2.55;62.23;99903.19;8459416;28;20059;-72
2022/03/07 17:57:09;;;;;;;22.83;8.90;;;;;;;2.53;62.39;99899.97;8463874;28;20047;-71
2022/03/07 18:01:10;;;;;;;24.73;10.25;;;;;;;2.51;63.14;99902.06;8467041;27;20523;-71
2022/03/07 18:05:11;;;;;;;24.58;9.55;;;;;;;2.51;63.07;99902.06;8453837;28;20048;-71
2022/03/07 18:09:13;;;;;;;20.58;8.93;;;;;;;2.50;62.83;99895.09;8463720;27;20100;-71
2022/03/07 18:13:15;;;;;;;25.35;9.68;;;;;;;2.45;62.66;99908.31;8463659;28;20051;-71
2022/03/07 18:17:16;;;;;;;24.70;9.57;;;;;;;2.39;63.23;99910.06;8444274;28;20119;-71
2022/03/07 18:21:17;;;;;;;21.80;10.05;;;;;;;2.38;63.22;99907.66;8459592;27;20044;-71
2022/03/07 18:25:19;;;;;;;24.38;9.75;;;;;;;2.37;63.64;99906.84;8464182;27;20039;-71
2022/03/07 18:29:20;;;;;;;27.95;12.30;;;;;;;2.36;63.71;99905.22;8440939;28;20044;-71
2022/03/07 18:33:21;;;;;;;32.20;11.93;;;;;;;2.34;64.07;99917.16;8429015;28;20048;-71
2022/03/07 18:37:22;;;;;;;38.30;12.20;;;;;;;2.31;64.40;99913.13;8427637;28;20051;-72
2022/03/07 18:41:23;;;;;;;39.55;13.32;;;;;;;2.31;64.62;99912.31;8427385;28;20047;-71
2022/03/07 18:45:25;;;;;;;34.60;13.43;;;;;;;2.30;64.57;99916.00;8418741;28;20416;-71